Wetterdaten: Woche 20.11.23 - 26.11.23 (KW47)
Datum Zeit Temp. Aussen Temp. o. S. Temp +5cm Feuchte Auss Luftdruck Regen Sonnenschein Regendauer Solar Windben Empfang
20.11.2023 00:00 10,9 C 10,4 C 7,2 C 97 % 1009,8 hPa 0,0 l/m 0,00 h 0,00 h 0 W/m 19,4 km/h (3 Bft) 98,66 %
20.11.2023 01:00 11,1 C 10,6 C 7,2 C 95 % 1009,8 hPa 0,0 l/m 0,00 h 0,00 h 0 W/m 18,2 km/h (3 Bft) 95,30 %
20.11.2023 02:00 11,1 C 10,3 C 7,2 C 94 % 1009,9 hPa 0,0 l/m 0,00 h 0,00 h 0 W/m 19,8 km/h (4 Bft) 97,07 %
20.11.2023 03:00 10,9 C 10,1 C 7,2 C 95 % 1009,8 hPa 0,0 l/m 0,00 h 0,00 h 0 W/m 20,3 km/h (4 Bft) 96,71 %
20.11.2023 04:00 10,8 C 10,0 C 7,2 C 94 % 1009,7 hPa 0,0 l/m 0,00 h 0,00 h 0 W/m 20,9 km/h (4 Bft) 97,62 %
20.11.2023 05:00 10,6 C 10,0 C 7,2 C 94 % 1009,9 hPa 0,0 l/m 0,00 h 0,00 h 0 W/m 19,4 km/h (3 Bft) 97,39 %
20.11.2023 06:00 10,6 C 10,0 C 7,2 C 94 % 1009,8 hPa 0,0 l/m 0,00 h 0,00 h 0 W/m 18,9 km/h (3 Bft) 97,51 %
20.11.2023 07:00 10,5 C 9,9 C 7,2 C 93 % 1010,1 hPa 0,0 l/m 0,00 h 0,00 h 0 W/m 18,4 km/h (3 Bft) 97,95 %
20.11.2023 08:00 10,3 C 9,7 C 6,9 C 93 % 1010,5 hPa 0,0 l/m 0,00 h 0,03 h 13 W/m 16,7 km/h (3 Bft) 97,37 %
20.11.2023 09:00 10,4 C 10,0 C 7,0 C 93 % 1010,7 hPa 0,0 l/m 0,03 h 0,00 h 55 W/m 15,4 km/h (3 Bft) 97,22 %
20.11.2023 10:00 10,6 C 10,3 C 6,9 C 93 % 1010,6 hPa 0,4 l/m 0,13 h 0,23 h 76 W/m 13,4 km/h (3 Bft) 98,25 %
20.11.2023 11:00 10,7 C 10,6 C 6,8 C 94 % 1010,4 hPa 0,0 l/m 0,07 h 0,03 h 85 W/m 15,8 km/h (3 Bft) 94,76 %
20.11.2023 12:00 11,0 C 11,1 C 7,1 C 91 % 1009,7 hPa 0,0 l/m 0,03 h 0,00 h 118 W/m 17,8 km/h (3 Bft) 98,24 %
20.11.2023 13:00 11,3 C 11,4 C 7,8 C 89 % 1009,4 hPa 0,0 l/m 0,17 h 0,00 h 124 W/m 14,9 km/h (3 Bft) 97,44 %
20.11.2023 14:00 11,2 C 10,8 C 7,7 C 88 % 1008,9 hPa 0,0 l/m 0,03 h 0,07 h 67 W/m 15,7 km/h (3 Bft) 97,24 %
20.11.2023 15:00 10,4 C 9,6 C 6,7 C 91 % 1008,9 hPa 0,0 l/m 0,00 h 0,10 h 28 W/m 7,4 km/h (2 Bft) 97,77 %
20.11.2023 16:00 10,1 C 9,1 C 6,1 C 93 % 1008,8 hPa 0,0 l/m 0,00 h 0,00 h 10 W/m 4,7 km/h (1 Bft) 97,77 %
20.11.2023 17:00 9,7 C 8,8 C 6,0 C 94 % 1008,8 hPa 0,0 l/m 0,00 h 0,17 h 0 W/m 3,3 km/h (1 Bft) 96,14 %
20.11.2023 18:00 9,4 C 8,3 C 5,6 C 95 % 1008,9 hPa 0,0 l/m 0,00 h 0,27 h 0 W/m 2,5 km/h (1 Bft) 98,97 %
20.11.2023 19:00 9,0 C 8,0 C 5,3 C 96 % 1008,8 hPa 0,2 l/m 0,00 h 0,00 h 0 W/m 3,4 km/h (1 Bft) 96,12 %
20.11.2023 20:00 8,6 C 7,6 C 5,0 C 96 % 1009,1 hPa 0,0 l/m 0,00 h 0,00 h 0 W/m 0,3 km/h (0 Bft) 98,06 %
20.11.2023 21:00 8,8 C 7,9 C 5,0 C 97 % 1009,3 hPa 0,0 l/m 0,00 h 0,00 h 0 W/m 0,0 km/h (0 Bft) 98,55 %
20.11.2023 22:00 8,8 C 8,1 C 5,4 C 97 % 1009,7 hPa 0,0 l/m 0,00 h 0,00 h 0 W/m 0,2 km/h (0 Bft) 96,63 %
20.11.2023 23:00 8,6 C 7,8 C 5,0 C 97 % 1010,2 hPa 0,0 l/m 0,00 h 0,00 h 0 W/m 0,0 km/h (0 Bft) 97,60 %
21.11.2023 00:00 8,2 C 7,1 C 4,7 C 97 % 1010,8 hPa 0,0 l/m 0,00 h 0,00 h 0 W/m 0,0 km/h (0 Bft) 96,96 %
21.11.2023 01:00 7,5 C 6,5 C 4,2 C 97 % 1011,2 hPa 0,0 l/m 0,00 h 0,00 h 0 W/m 0,0 km/h (0 Bft) 99,18 %
21.11.2023 02:00 7,6 C 6,7 C 4,4 C 98 % 1011,5 hPa 0,0 l/m 0,00 h 0,00 h 0 W/m 0,0 km/h (0 Bft) 95,70 %
21.11.2023 03:00 7,7 C 7,0 C 4,7 C 98 % 1011,9 hPa 0,0 l/m 0,00 h 0,00 h 0 W/m 0,0 km/h (0 Bft) 98,29 %
21.11.2023 04:00 7,8 C 7,2 C 5,0 C 98 % 1012,3 hPa 0,0 l/m 0,00 h 0,00 h 0 W/m 0,0 km/h (0 Bft) 96,60 %
21.11.2023 05:00 7,8 C 7,2 C 5,0 C 98 % 1012,7 hPa 0,0 l/m 0,00 h 0,00 h 0 W/m 0,0 km/h (0 Bft) 95,73 %
21.11.2023 06:00 7,6 C 6,8 C 4,6 C 98 % 1013,3 hPa 0,0 l/m 0,00 h 0,00 h 0 W/m 0,0 km/h (0 Bft) 98,04 %
21.11.2023 07:00 7,6 C 7,0 C 5,0 C 99 % 1014,1 hPa 0,0 l/m 0,00 h 0,00 h 0 W/m 0,0 km/h (0 Bft) 98,44 %
21.11.2023 08:00 7,8 C 7,2 C 5,0 C 99 % 1014,8 hPa 0,0 l/m 0,00 h 0,00 h 13 W/m 0,0 km/h (0 Bft) 96,20 %
21.11.2023 09:00 8,1 C 7,8 C 5,6 C 99 % 1015,6 hPa 0,0 l/m 0,00 h 0,00 h 41 W/m 0,9 km/h (0 Bft) 98,10 %
21.11.2023 10:00 8,3 C 8,2 C 6,1 C 99 % 1016,3 hPa 0,0 l/m 0,00 h 0,00 h 53 W/m 2,1 km/h (1 Bft) 97,32 %
21.11.2023 11:00 8,6 C 8,7 C 6,6 C 99 % 1016,8 hPa 0,0 l/m 0,00 h 0,00 h 69 W/m 3,1 km/h (1 Bft) 95,98 %
21.11.2023 12:00 9,2 C 9,9 C 7,2 C 99 % 1017,2 hPa 0,0 l/m 0,00 h 0,00 h 114 W/m 3,2 km/h (1 Bft) 98,86 %
21.11.2023 13:00 9,7 C 10,1 C 7,6 C 99 % 1017,5 hPa 0,0 l/m 0,00 h 0,00 h 88 W/m 4,1 km/h (1 Bft) 96,17 %
21.11.2023 14:00 9,9 C 9,9 C 7,3 C 98 % 1018,0 hPa 0,0 l/m 0,00 h 0,00 h 55 W/m 7,9 km/h (2 Bft) 97,26 %
21.11.2023 15:00 9,9 C 9,1 C 6,8 C 97 % 1018,6 hPa 0,2 l/m 0,00 h 0,10 h 18 W/m 6,6 km/h (2 Bft) 97,91 %
21.11.2023 16:00 9,4 C 8,8 C 6,1 C 98 % 1019,4 hPa 0,0 l/m 0,00 h 0,00 h 4 W/m 8,9 km/h (2 Bft) 97,69 %
21.11.2023 17:00 8,9 C 8,3 C 5,8 C 98 % 1020,5 hPa 0,0 l/m 0,00 h 0,00 h 0 W/m 10,7 km/h (2 Bft) 96,31 %
21.11.2023 18:00 8,1 C 7,4 C 4,8 C 96 % 1021,9 hPa 0,2 l/m 0,00 h 0,00 h 0 W/m 14,8 km/h (3 Bft) 98,00 %
21.11.2023 19:00 7,1 C 6,7 C 3,7 C 96 % 1023,0 hPa 0,0 l/m 0,00 h 0,00 h 0 W/m 13,1 km/h (3 Bft) 98,15 %
21.11.2023 20:00 6,7 C 6,1 C 3,3 C 92 % 1023,8 hPa 0,0 l/m 0,00 h 0,00 h 0 W/m 10,5 km/h (2 Bft) 94,98 %
21.11.2023 21:00 6,8 C 6,1 C 3,3 C 91 % 1024,8 hPa 0,0 l/m 0,00 h 0,00 h 0 W/m 7,7 km/h (2 Bft) 95,22 %
21.11.2023 22:00 6,9 C 6,5 C 3,5 C 91 % 1025,3 hPa 0,0 l/m 0,00 h 0,00 h 0 W/m 9,7 km/h (2 Bft) 97,33 %
21.11.2023 23:00 6,8 C 6,2 C 3,2 C 91 % 1026,1 hPa 0,0 l/m 0,00 h 0,00 h 0 W/m 4,5 km/h (1 Bft) 96,52 %
22.11.2023 00:00 6,2 C 5,3 C 2,4 C 92 % 1026,8 hPa 0,0 l/m 0,00 h 0,20 h 0 W/m 2,4 km/h (1 Bft) 96,33 %
22.11.2023 01:00 6,2 C 5,5 C 2,6 C 95 % 1026,9 hPa 0,2 l/m 0,00 h 0,33 h 0 W/m 1,0 km/h (0 Bft) 97,36 %
22.11.2023 02:00 5,6 C 4,5 C 1,8 C 95 % 1027,3 hPa 0,0 l/m 0,00 h 0,00 h 0 W/m 1,5 km/h (1 Bft) 97,97 %
22.11.2023 03:00 4,5 C 3,2 C 0,8 C 95 % 1028,0 hPa 0,0 l/m 0,00 h 0,00 h 0 W/m 0,7 km/h (0 Bft) 97,49 %
22.11.2023 04:00 3,8 C 2,8 C 0,5 C 96 % 1028,4 hPa 0,2 l/m 0,00 h 0,00 h 0 W/m 1,5 km/h (1 Bft) 96,65 %
22.11.2023 05:00 3,4 C 2,6 C 0,0 C 96 % 1029,0 hPa 0,0 l/m 0,00 h 0,00 h 0 W/m 1,6 km/h (1 Bft) 98,80 %
22.11.2023 06:00 2,9 C 1,8 C -0,5 C 97 % 1029,5 hPa 0,0 l/m 0,00 h 0,00 h 0 W/m 0,6 km/h (0 Bft) 97,28 %
22.11.2023 07:00 2,3 C 1,2 C -0,9 C 97 % 1029,8 hPa 0,0 l/m 0,00 h 0,00 h 0 W/m 0,3 km/h (0 Bft) 97,23 %
22.11.2023 08:00 1,7 C 0,9 C -1,1 C 97 % 1030,4 hPa 0,0 l/m 0,00 h 0,00 h 16 W/m 0,6 km/h (0 Bft) 95,15 %
22.11.2023 09:00 2,0 C 2,2 C -0,4 C 97 % 1030,6 hPa 0,0 l/m 0,47 h 0,00 h 98 W/m 0,9 km/h (0 Bft) 98,43 %
22.11.2023 10:00 3,5 C 4,0 C 0,7 C 98 % 1031,1 hPa 0,0 l/m 0,60 h 0,00 h 151 W/m 1,7 km/h (1 Bft) 95,66 %
22.11.2023 11:00 4,2 C 5,3 C 2,0 C 97 % 1031,1 hPa 0,0 l/m 0,00 h 0,00 h 111 W/m 1,0 km/h (0 Bft) 98,21 %
22.11.2023 12:00 5,2 C 6,1 C 2,8 C 89 % 1030,8 hPa 0,0 l/m 0,00 h 0,00 h 125 W/m 0,0 km/h (0 Bft) 97,92 %
22.11.2023 13:00 5,9 C 8,0 C 2,8 C 80 % 1029,7 hPa 0,0 l/m 0,60 h 0,00 h 183 W/m 2,0 km/h (1 Bft) 96,56 %
22.11.2023 14:00 6,7 C 7,5 C 3,0 C 79 % 1029,5 hPa 0,0 l/m 0,83 h 0,00 h 155 W/m 5,2 km/h (1 Bft) 97,10 %
22.11.2023 15:00 6,3 C 5,7 C 2,7 C 77 % 1029,4 hPa 0,0 l/m 0,00 h 0,00 h 50 W/m 3,1 km/h (1 Bft) 96,42 %
22.11.2023 16:00 5,8 C 5,1 C 2,2 C 76 % 1029,5 hPa 0,0 l/m 0,00 h 0,00 h 7 W/m 3,1 km/h (1 Bft) 96,96 %
22.11.2023 17:00 5,6 C 5,0 C 1,7 C 83 % 1029,3 hPa 0,0 l/m 0,00 h 0,00 h 0 W/m 2,2 km/h (1 Bft) 98,44 %
22.11.2023 18:00 5,5 C 5,0 C 1,7 C 88 % 1028,7 hPa 0,0 l/m 0,00 h 0,00 h 0 W/m 9,5 km/h (2 Bft) 97,19 %
22.11.2023 19:00 5,3 C 4,7 C 1,7 C 89 % 1028,4 hPa 0,0 l/m 0,00 h 0,00 h 0 W/m 8,1 km/h (2 Bft) 95,78 %
22.11.2023 20:00 5,1 C 4,4 C 1,7 C 90 % 1028,2 hPa 0,0 l/m 0,00 h 0,00 h 0 W/m 12,0 km/h (2 Bft) 99,13 %
22.11.2023 21:00 5,2 C 4,5 C 1,7 C 89 % 1027,7 hPa 0,0 l/m 0,00 h 0,00 h 0 W/m 12,9 km/h (3 Bft) 97,05 %
22.11.2023 22:00 5,1 C 4,5 C 1,7 C 88 % 1027,5 hPa 0,0 l/m 0,00 h 0,00 h 0 W/m 13,6 km/h (3 Bft) 97,14 %
22.11.2023 23:00 5,6 C 5,2 C 2,0 C 86 % 1026,8 hPa 0,0 l/m 0,00 h 0,00 h 0 W/m 16,2 km/h (3 Bft) 98,18 %
23.11.2023 00:00 6,2 C 5,6 C 2,2 C 86 % 1026,2 hPa 0,0 l/m 0,00 h 0,00 h 0 W/m 21,8 km/h (4 Bft) 97,23 %
23.11.2023 01:00 6,4 C 5,6 C 2,6 C 91 % 1025,4 hPa 0,0 l/m 0,00 h 0,00 h 0 W/m 15,2 km/h (3 Bft) 97,71 %
23.11.2023 02:00 6,4 C 5,6 C 2,3 C 94 % 1025,1 hPa 0,0 l/m 0,00 h 0,07 h 0 W/m 14,4 km/h (3 Bft) 96,61 %
23.11.2023 03:00 6,7 C 6,1 C 2,9 C 96 % 1025,0 hPa 0,0 l/m 0,00 h 0,00 h 0 W/m 13,3 km/h (3 Bft) 96,04 %
23.11.2023 04:00 7,1 C 6,6 C 3,4 C 97 % 1024,7 hPa 0,0 l/m 0,00 h 0,00 h 0 W/m 11,8 km/h (2 Bft) 95,46 %
23.11.2023 05:00 7,5 C 7,0 C 3,9 C 97 % 1024,3 hPa 0,0 l/m 0,00 h 0,00 h 0 W/m 15,3 km/h (3 Bft) 98,52 %
23.11.2023 06:00 7,9 C 7,2 C 4,3 C 97 % 1024,1 hPa 0,0 l/m 0,00 h 0,00 h 0 W/m 14,4 km/h (3 Bft) 96,76 %
23.11.2023 07:00 8,2 C 7,6 C 4,7 C 97 % 1023,9 hPa 0,0 l/m 0,00 h 0,00 h 0 W/m 15,5 km/h (3 Bft) 94,78 %
23.11.2023 08:00 8,7 C 8,1 C 5,1 C 97 % 1023,6 hPa 0,0 l/m 0,00 h 0,00 h 9 W/m 14,5 km/h (3 Bft) 97,47 %
23.11.2023 09:00 9,2 C 8,7 C 5,8 C 96 % 1023,3 hPa 0,0 l/m 0,00 h 0,00 h 32 W/m 15,2 km/h (3 Bft) 97,88 %
23.11.2023 10:00 9,6 C 9,3 C 6,1 C 95 % 1023,0 hPa 0,0 l/m 0,00 h 0,00 h 46 W/m 16,5 km/h (3 Bft) 95,82 %
23.11.2023 11:00 9,8 C 9,5 C 6,4 C 95 % 1022,4 hPa 0,0 l/m 0,00 h 0,00 h 44 W/m 14,5 km/h (3 Bft) 99,58 %
23.11.2023 12:00 10,5 C 10,2 C 7,1 C 94 % 1021,4 hPa 0,0 l/m 0,00 h 0,00 h 76 W/m 18,0 km/h (3 Bft) 96,46 %
23.11.2023 13:00 10,9 C 10,6 C 7,5 C 93 % 1020,5 hPa 0,0 l/m 0,00 h 0,00 h 63 W/m 18,3 km/h (3 Bft) 97,67 %
23.11.2023 14:00 11,1 C 10,7 C 7,3 C 92 % 1019,2 hPa 0,0 l/m 0,00 h 0,00 h 28 W/m 17,2 km/h (3 Bft) 97,58 %
23.11.2023 15:00 11,5 C 11,1 C 7,8 C 91 % 1018,4 hPa 0,0 l/m 0,00 h 0,00 h 11 W/m 18,2 km/h (3 Bft) 96,16 %
23.11.2023 16:00 11,6 C 11,1 C 7,8 C 91 % 1017,8 hPa 0,0 l/m 0,00 h 0,00 h 0 W/m 18,8 km/h (3 Bft) 90,45 %
23.11.2023 17:00 11,7 C 11,1 C 7,8 C 90 % 1017,4 hPa 0,0 l/m 0,00 h 0,00 h 0 W/m 17,8 km/h (3 Bft) 94,91 %
23.11.2023 18:00 11,7 C 11,1 C 7,7 C 90 % 1017,0 hPa 0,0 l/m 0,00 h 0,00 h 0 W/m 22,5 km/h (4 Bft) 95,22 %
23.11.2023 19:00 11,3 C 10,5 C 7,1 C 93 % 1016,4 hPa 0,0 l/m 0,00 h 0,07 h 0 W/m 19,0 km/h (3 Bft) 95,74 %
23.11.2023 20:00 10,8 C 10,0 C 6,7 C 96 % 1015,5 hPa 0,2 l/m 0,00 h 0,10 h 0 W/m 18,6 km/h (3 Bft) 97,28 %
23.11.2023 21:00 10,5 C 9,7 C 6,7 C 97 % 1014,8 hPa 0,4 l/m 0,00 h 0,10 h 0 W/m 21,2 km/h (4 Bft) 95,25 %
23.11.2023 22:00 10,5 C 9,7 C 6,7 C 97 % 1014,1 hPa 0,4 l/m 0,00 h 0,50 h 0 W/m 18,9 km/h (3 Bft) 98,31 %
23.11.2023 23:00 10,3 C 9,5 C 6,5 C 98 % 1013,6 hPa 1,4 l/m 0,00 h 0,67 h 0 W/m 26,9 km/h (4 Bft) 97,13 %
24.11.2023 00:00 9,4 C 8,6 C 5,5 C 96 % 1013,9 hPa 0,0 l/m 0,00 h 1,00 h 0 W/m 20,6 km/h (4 Bft) 96,32 %
24.11.2023 01:00 9,0 C 8,3 C 4,9 C 94 % 1014,1 hPa 0,0 l/m 0,00 h 0,60 h 0 W/m 17,0 km/h (3 Bft) 97,28 %
24.11.2023 02:00 8,5 C 7,6 C 4,1 C 90 % 1014,4 hPa 0,0 l/m 0,00 h 0,23 h 0 W/m 18,4 km/h (3 Bft) 98,23 %
24.11.2023 03:00 7,9 C 7,2 C 3,4 C 90 % 1013,8 hPa 0,0 l/m 0,00 h 0,00 h 0 W/m 14,9 km/h (3 Bft) 94,24 %
24.11.2023 04:00 7,8 C 7,2 C 4,2 C 87 % 1013,3 hPa 0,0 l/m 0,00 h 0,00 h 0 W/m 16,1 km/h (3 Bft) 98,26 %
24.11.2023 05:00 7,4 C 6,8 C 3,8 C 86 % 1012,9 hPa 0,0 l/m 0,00 h 0,00 h 0 W/m 16,3 km/h (3 Bft) 96,38 %
24.11.2023 06:00 7,2 C 6,7 C 3,3 C 87 % 1012,6 hPa 0,0 l/m 0,00 h 0,00 h 0 W/m 16,0 km/h (3 Bft) 96,51 %
24.11.2023 07:00 6,7 C 5,7 C 2,7 C 90 % 1012,5 hPa 1,0 l/m 0,00 h 0,40 h 0 W/m 17,0 km/h (3 Bft) 96,58 %
24.11.2023 08:00 6,1 C 5,5 C 2,1 C 94 % 1012,3 hPa 0,4 l/m 0,00 h 0,33 h 17 W/m 11,0 km/h (2 Bft) 97,74 %
24.11.2023 09:00 5,8 C 5,6 C 1,9 C 95 % 1011,8 hPa 0,4 l/m 0,23 h 0,22 h 79 W/m 17,7 km/h (3 Bft) 97,25 %
24.11.2023 10:00 5,9 C 5,5 C 2,0 C 94 % 1011,4 hPa 0,4 l/m 0,17 h 0,30 h 70 W/m 20,6 km/h (4 Bft) 95,93 %
24.11.2023 11:00 5,8 C 5,6 C 2,0 C 94 % 1011,0 hPa 0,0 l/m 0,00 h 0,10 h 87 W/m 21,7 km/h (4 Bft) 99,15 %
24.11.2023 12:00 5,8 C 5,6 C 2,0 C 91 % 1010,6 hPa 0,2 l/m 0,10 h 0,43 h 95 W/m 25,2 km/h (4 Bft) 96,37 %
24.11.2023 13:00 5,5 C 7,4 C 1,8 C 91 % 1010,0 hPa 0,0 l/m 0,42 h 0,00 h 136 W/m 17,2 km/h (3 Bft) 93,43 %
24.11.2023 14:00 6,3 C 6,5 C 2,4 C 85 % 1009,3 hPa 0,0 l/m 0,85 h 0,00 h 145 W/m 23,0 km/h (4 Bft) 96,21 %
24.11.2023 15:00 6,0 C 5,6 C 2,1 C 86 % 1009,1 hPa 0,0 l/m 0,13 h 0,30 h 33 W/m 22,4 km/h (4 Bft) 96,86 %
24.11.2023 16:00 5,1 C 4,5 C 1,2 C 89 % 1009,2 hPa 0,0 l/m 0,00 h 0,00 h 9 W/m 16,9 km/h (3 Bft) 96,37 %
24.11.2023 17:00 3,8 C 2,9 C -0,5 C 91 % 1009,5 hPa 1,4 l/m 0,00 h 0,30 h 0 W/m 19,3 km/h (3 Bft) 98,32 %
24.11.2023 18:00 3,7 C 3,2 C -0,3 C 95 % 1009,5 hPa 0,8 l/m 0,00 h 0,45 h 0 W/m 16,6 km/h (3 Bft) 97,66 %
24.11.2023 19:00 3,8 C 3,3 C -0,0 C 94 % 1009,1 hPa 0,0 l/m 0,00 h 0,00 h 0 W/m 20,9 km/h (4 Bft) 96,74 %
24.11.2023 20:00 4,1 C 3,7 C 0,4 C 93 % 1009,0 hPa 0,8 l/m 0,00 h 0,27 h 0 W/m 20,7 km/h (4 Bft) 97,02 %
24.11.2023 21:00 3,5 C 2,9 C -0,5 C 93 % 1009,9 hPa 0,4 l/m 0,00 h 0,23 h 0 W/m 22,6 km/h (4 Bft) 98,39 %
24.11.2023 22:00 2,8 C 2,2 C -0,8 C 93 % 1010,3 hPa 0,0 l/m 0,00 h 0,00 h 0 W/m 14,7 km/h (3 Bft) 98,12 %
24.11.2023 23:00 3,0 C 2,7 C -0,6 C 94 % 1011,7 hPa 0,0 l/m 0,00 h 0,30 h 0 W/m 7,0 km/h (2 Bft) 96,02 %
25.11.2023 00:00 2,9 C 2,3 C -0,6 C 94 % 1012,2 hPa 0,0 l/m 0,00 h 0,23 h 0 W/m 5,5 km/h (1 Bft) 98,09 %
25.11.2023 01:00 2,7 C 1,8 C -0,9 C 95 % 1012,5 hPa 0,2 l/m 0,00 h 0,10 h 0 W/m 2,4 km/h (1 Bft) 97,81 %
25.11.2023 02:00 2,4 C 1,7 C -1,1 C 95 % 1012,8 hPa 0,0 l/m 0,00 h 0,00 h 0 W/m 4,0 km/h (1 Bft) 95,96 %
25.11.2023 03:00 2,0 C 1,1 C -1,1 C 96 % 1012,9 hPa 0,0 l/m 0,00 h 0,00 h 0 W/m 4,9 km/h (1 Bft) 96,17 %
25.11.2023 04:00 2,1 C 1,7 C -1,1 C 96 % 1012,9 hPa 0,0 l/m 0,00 h 0,00 h 0 W/m 7,0 km/h (2 Bft) 97,98 %
25.11.2023 05:00 2,1 C 1,4 C -1,1 C 96 % 1012,9 hPa 0,0 l/m 0,00 h 0,00 h 0 W/m 4,7 km/h (1 Bft) 96,42 %
25.11.2023 06:00 2,3 C 2,0 C -0,7 C 96 % 1012,8 hPa 0,0 l/m 0,00 h 0,00 h 0 W/m 9,1 km/h (2 Bft) 93,97 %
25.11.2023 07:00 2,8 C 2,5 C -0,1 C 96 % 1012,7 hPa 0,0 l/m 0,00 h 0,00 h 0 W/m 11,5 km/h (2 Bft) 97,31 %
25.11.2023 08:00 3,0 C 2,5 C 0,0 C 95 % 1012,4 hPa 0,0 l/m 0,00 h 0,00 h 18 W/m 13,1 km/h (3 Bft) 98,83 %
25.11.2023 09:00 3,6 C 3,3 C 0,6 C 95 % 1012,5 hPa 0,0 l/m 0,07 h 0,10 h 43 W/m 14,0 km/h (3 Bft) 97,36 %
25.11.2023 10:00 4,3 C 4,2 C 1,4 C 95 % 1012,5 hPa 0,0 l/m 0,20 h 0,03 h 93 W/m 14,8 km/h (3 Bft) 93,43 %
25.11.2023 11:00 5,4 C 5,4 C 2,3 C 93 % 1012,1 hPa 0,0 l/m 0,03 h 0,00 h 92 W/m 19,3 km/h (3 Bft) 97,80 %
25.11.2023 12:00 5,9 C 5,7 C 2,6 C 91 % 1011,7 hPa 0,0 l/m 0,10 h 0,23 h 86 W/m 17,2 km/h (3 Bft) 95,95 %
25.11.2023 13:00 6,4 C 6,4 C 3,0 C 91 % 1011,5 hPa 0,0 l/m 0,17 h 0,17 h 113 W/m 19,1 km/h (3 Bft) 95,48 %
25.11.2023 14:00 7,2 C 7,1 C 3,6 C 88 % 1011,0 hPa 0,0 l/m 0,50 h 0,03 h 139 W/m 20,9 km/h (4 Bft) 99,36 %
25.11.2023 15:00 6,5 C 5,5 C 2,1 C 91 % 1011,4 hPa 1,4 l/m 0,00 h 0,87 h 13 W/m 18,1 km/h (3 Bft) 95,51 %
25.11.2023 16:00 5,8 C 5,2 C 1,7 C 94 % 1011,6 hPa 1,2 l/m 0,00 h 0,37 h 5 W/m 16,5 km/h (3 Bft) 97,81 %
25.11.2023 17:00 5,5 C 4,7 C 1,2 C 94 % 1011,9 hPa 0,0 l/m 0,00 h 0,03 h 0 W/m 16,4 km/h (3 Bft) 97,54 %
25.11.2023 18:00 5,6 C 5,0 C 1,6 C 94 % 1012,7 hPa 0,0 l/m 0,00 h 0,10 h 0 W/m 15,6 km/h (3 Bft) 94,42 %
25.11.2023 19:00 5,3 C 4,6 C 1,3 C 94 % 1013,2 hPa 0,0 l/m 0,00 h 0,00 h 0 W/m 13,2 km/h (3 Bft) 98,29 %
25.11.2023 20:00 4,9 C 4,1 C 1,0 C 94 % 1013,9 hPa 0,0 l/m 0,00 h 0,00 h 0 W/m 8,3 km/h (2 Bft) 97,66 %
25.11.2023 21:00 4,6 C 3,9 C 0,7 C 95 % 1014,6 hPa 0,0 l/m 0,00 h 0,00 h 0 W/m 4,9 km/h (1 Bft) 96,75 %
25.11.2023 22:00 4,2 C 3,4 C 0,4 C 95 % 1015,0 hPa 0,0 l/m 0,00 h 0,00 h 0 W/m 3,8 km/h (1 Bft) 96,79 %
25.11.2023 23:00 3,5 C 2,6 C -0,4 C 95 % 1015,2 hPa 0,0 l/m 0,00 h 0,00 h 0 W/m 1,3 km/h (1 Bft) 97,92 %
26.11.2023 00:00 3,8 C 3,3 C 0,6 C 96 % 1015,5 hPa 0,0 l/m 0,00 h 0,00 h 0 W/m 2,1 km/h (1 Bft) 98,90 %
26.11.2023 01:00 3,9 C 3,2 C 0,6 C 97 % 1015,6 hPa 0,0 l/m 0,00 h 0,00 h 0 W/m 3,6 km/h (1 Bft) 95,75 %
26.11.2023 02:00 3,2 C 2,0 C -0,5 C 96 % 1015,7 hPa 0,0 l/m 0,00 h 0,00 h 0 W/m 0,7 km/h (0 Bft) 96,25 %
26.11.2023 03:00 2,2 C 0,9 C -1,5 C 96 % 1015,9 hPa 0,0 l/m 0,00 h 0,00 h 0 W/m 0,0 km/h (0 Bft) 97,16 %
26.11.2023 04:00 1,9 C 1,1 C -1,2 C 97 % 1016,0 hPa 0,0 l/m 0,00 h 0,00 h 0 W/m 1,6 km/h (1 Bft) 98,68 %
26.11.2023 05:00 2,1 C 1,5 C -0,7 C 97 % 1016,2 hPa 0,0 l/m 0,00 h 0,00 h 0 W/m 0,1 km/h (0 Bft) 93,47 %
26.11.2023 06:00 2,2 C 1,7 C -0,6 C 97 % 1016,3 hPa 0,0 l/m 0,00 h 0,00 h 0 W/m 0,0 km/h (0 Bft) 97,54 %
26.11.2023 07:00 2,2 C 1,7 C -0,6 C 98 % 1016,3 hPa 0,0 l/m 0,00 h 0,00 h 0 W/m 0,4 km/h (0 Bft) 98,94 %
26.11.2023 08:00 2,5 C 2,1 C -0,2 C 98 % 1016,3 hPa 0,2 l/m 0,00 h 0,00 h 15 W/m 2,6 km/h (1 Bft) 95,23 %
26.11.2023 09:00 3,5 C 3,4 C 1,0 C 98 % 1016,3 hPa 0,0 l/m 0,00 h 0,00 h 43 W/m 6,3 km/h (2 Bft) 98,92 %
26.11.2023 10:00 4,6 C 4,6 C 2,0 C 99 % 1016,3 hPa 0,0 l/m 0,00 h 0,00 h 78 W/m 8,3 km/h (2 Bft) 96,58 %
26.11.2023 11:00 5,3 C 5,7 C 2,9 C 99 % 1016,1 hPa 0,0 l/m 0,00 h 0,00 h 102 W/m 9,7 km/h (2 Bft) 96,66 %
26.11.2023 12:00 6,1 C 6,4 C 3,7 C 98 % 1015,8 hPa 0,0 l/m 0,00 h 0,00 h 114 W/m 10,1 km/h (2 Bft) 97,87 %
26.11.2023 13:00 6,5 C 6,5 C 3,8 C 97 % 1015,7 hPa 0,0 l/m 0,00 h 0,13 h 75 W/m 9,8 km/h (2 Bft) 97,84 %
26.11.2023 14:00 6,4 C 5,8 C 3,1 C 97 % 1015,4 hPa 0,2 l/m 0,00 h 0,60 h 29 W/m 8,7 km/h (2 Bft) 95,76 %
26.11.2023 15:00 6,1 C 5,6 C 2,8 C 97 % 1015,2 hPa 0,2 l/m 0,00 h 0,83 h 10 W/m 5,2 km/h (1 Bft) 97,55 %
26.11.2023 16:00 5,9 C 5,4 C 2,8 C 97 % 1014,8 hPa 0,2 l/m 0,00 h 0,83 h 5 W/m 7,4 km/h (2 Bft) 95,49 %
26.11.2023 17:00 5,7 C 5,0 C 2,8 C 98 % 1014,7 hPa 0,4 l/m 0,00 h 0,80 h 0 W/m 7,5 km/h (2 Bft) 95,87 %
26.11.2023 18:00 5,6 C 5,0 C 2,5 C 98 % 1014,5 hPa 0,0 l/m 0,00 h 0,00 h 0 W/m 11,2 km/h (2 Bft) 97,04 %
26.11.2023 19:00 5,2 C 4,7 C 2,2 C 98 % 1014,4 hPa 0,0 l/m 0,00 h 0,00 h 0 W/m 10,4 km/h (2 Bft) 98,28 %
26.11.2023 20:00 5,0 C 4,4 C 1,8 C 97 % 1014,0 hPa 0,0 l/m 0,00 h 0,00 h 0 W/m 10,2 km/h (2 Bft) 95,09 %
26.11.2023 21:00 4,7 C 4,4 C 1,7 C 96 % 1013,5 hPa 0,0 l/m 0,00 h 0,00 h 0 W/m 12,9 km/h (3 Bft) 95,83 %
26.11.2023 22:00 4,6 C 4,1 C 1,2 C 94 % 1012,9 hPa 0,0 l/m 0,00 h 0,00 h 0 W/m 11,3 km/h (2 Bft) 99,08 %
26.11.2023 23:00 4,6 C 3,9 C 1,1 C 93 % 1012,4 hPa 0,0 l/m 0,00 h 0,00 h 0 W/m 11,2 km/h (2 Bft) 96,66 %
Min-Datum _ 22.11.23 22.11.23 22.11.23 22.11.23 20.11.23 - - - - 20.11.23 25.11.23
_ Min-Zeit 08:34 07:52 08:14 16:14 19:14 - - - - 16:46 06:36
Minimum _ 1,5 C 0,6 C -1,7 C 74 % 1008,6 hPa - - - - 0,0 km/h (0 Bft) 9,09 %
Max-Datum _ 23.11.23 20.11.23 20.11.23 21.11.23 22.11.23 23.11.23 24.11.23 24.11.23 25.11.23 24.11.23 20.11.23
_ Max-Zeit 17:04 13:44 13:58 06:52 10:04 23:24 13:18 09:10 13:56 17:12 00:00
Maximum _ 11,7 C 12,8 C 8,3 C 99 % 1031,3 hPa 1,4 l/m 0,08 h 0,08 h 301 W/m 61,2 km/h
N (7 Bft)
100,00 %
Durchschnitt _ 6,7 C 6,2 C 3,3 C 94 % 1016,6 hPa #13,6 l/m #5:56 h #14:06 h 64 W/m 10,5 km/h (2 Bft) 96,99 %
© 2023 W. Hausmann